Time;durP1;ratioP1;P1;durP2;ratioP2;P2;SDS_P1;SDS_P2;PMS_P1;PMS_P2;Temp;Humidity;BMP_temperature;BMP_pressure;BME280_temperature;BME280_humidity;BME280_pressure;Samples;Min_cycle;Max_cycle;Signal;HPM_P1;HPM_P2
2021/03/31 00:01:41;;;;;;;23.48;11.02;;;15.10;99.90;;;;;;5054118;28;20389;-71
2021/03/31 00:04:07;;;;;;;18.85;11.95;;;15.00;99.90;;;;;;5053700;28;20036;-70
2021/03/31 00:06:33;;;;;;;28.08;12.45;;;15.00;99.90;;;;;;5053323;28;20493;-71
2021/03/31 00:08:58;;;;;;;25.55;11.70;;;15.00;99.90;;;;;;5054025;28;20032;-70
2021/03/31 00:11:24;;;;;;;19.17;10.85;;;15.00;99.90;;;;;;5053822;28;20024;-70
2021/03/31 00:13:50;;;;;;;22.92;11.05;;;15.00;99.90;;;;;;5053920;28;20018;-72
2021/03/31 00:16:16;;;;;;;19.73;10.50;;;15.00;99.90;;;;;;5053563;28;20469;-70
2021/03/31 00:18:42;;;;;;;20.92;11.43;;;14.90;99.90;;;;;;5053988;28;20044;-72
2021/03/31 00:21:07;;;;;;;20.90;12.45;;;15.00;99.90;;;;;;5054031;28;20017;-71
2021/03/31 00:23:33;;;;;;;23.90;11.05;;;14.90;99.90;;;;;;5053462;28;20083;-70
2021/03/31 00:25:59;;;;;;;25.13;12.18;;;14.80;99.90;;;;;;5053506;28;20035;-70
2021/03/31 00:28:27;;;;;;;27.10;12.18;;;14.80;99.90;;;;;;5053398;28;20048;-72
2021/03/31 00:30:53;;;;;;;24.05;12.52;;;14.80;99.90;;;;;;5053014;28;20052;-70
2021/03/31 00:33:19;;;;;;;24.10;12.73;;;14.80;99.90;;;;;;5053159;28;20044;-71
2021/03/31 00:35:45;;;;;;;19.88;12.43;;;14.80;99.90;;;;;;5050083;28;20474;-71
2021/03/31 00:38:12;;;;;;;27.67;12.75;;;14.80;99.90;;;;;;5047133;28;20682;-69
2021/03/31 00:40:39;;;;;;;23.45;12.20;;;14.80;99.90;;;;;;5052829;28;20047;-70
2021/03/31 00:43:05;;;;;;;32.10;12.40;;;14.80;99.90;;;;;;5053193;28;20032;-72
2021/03/31 00:45:32;;;;;;;27.88;13.85;;;14.70;99.90;;;;;;5051974;28;20021;-71
2021/03/31 00:47:57;;;;;;;28.88;12.13;;;14.70;99.90;;;;;;5053355;28;20021;-73
2021/03/31 00:50:23;;;;;;;23.60;12.50;;;14.70;99.90;;;;;;5052840;28;20024;-70
2021/03/31 00:52:51;;;;;;;18.58;10.75;;;14.70;99.90;;;;;;5053061;28;20044;-70
2021/03/31 00:55:20;;;;;;;27.13;11.98;;;14.70;99.90;;;;;;5052568;28;20082;-70
2021/03/31 00:57:46;;;;;;;19.70;11.10;;;14.70;99.90;;;;;;5052717;28;20045;-71
2021/03/31 01:00:12;;;;;;;17.88;10.50;;;14.70;99.90;;;;;;5052791;28;20013;-72
2021/03/31 01:02:39;;;;;;;16.15;10.10;;;14.60;99.90;;;;;;5052893;28;20017;-70
2021/03/31 01:05:21;;;;;;;22.75;10.85;;;14.60;99.90;;;;;;5052657;28;20013;-71
2021/03/31 01:07:47;;;;;;;29.55;11.32;;;14.50;99.90;;;;;;5052769;28;20021;-69
2021/03/31 01:10:16;;;;;;;24.38;11.70;;;14.50;99.90;;;;;;5052545;28;20378;-72
2021/03/31 01:13:06;;;;;;;29.88;11.32;;;14.40;99.90;;;;;;5052575;28;20033;-73
2021/03/31 01:15:52;;;;;;;26.80;11.65;;;14.40;99.90;;;;;;5052547;28;20017;-72
2021/03/31 01:18:24;;;;;;;20.33;11.02;;;14.40;99.90;;;;;;5051898;28;20082;-69
2021/03/31 01:21:20;;;;;;;20.47;10.67;;;14.40;99.90;;;;;;5052688;28;20020;-72
2021/03/31 01:24:07;;;;;;;18.10;10.90;;;14.40;99.90;;;;;;5052597;28;20107;-73
2021/03/31 01:26:47;;;;;;;21.50;10.82;;;14.40;99.90;;;;;;5040184;28;20389;-71
2021/03/31 01:29:37;;;;;;;22.13;9.77;;;14.40;99.90;;;;;;5043716;28;20371;-69
2021/03/31 01:32:33;;;;;;;22.10;10.70;;;14.40;99.90;;;;;;5046089;28;20485;-72
2021/03/31 01:35:07;;;;;;;20.60;10.35;;;14.40;99.90;;;;;;5037502;28;20562;-73
2021/03/31 01:37:37;;;;;;;23.65;10.98;;;14.40;99.90;;;;;;5038884;28;20041;-72
2021/03/31 01:40:06;;;;;;;24.48;10.98;;;14.40;99.90;;;;;;5041647;28;20040;-71
2021/03/31 01:42:35;;;;;;;24.75;10.43;;;14.40;99.90;;;;;;5038072;28;20079;-72
2021/03/31 01:45:08;;;;;;;22.58;11.52;;;14.40;99.90;;;;;;5043427;28;20035;-70
2021/03/31 01:47:37;;;;;;;21.45;9.65;;;14.40;99.90;;;;;;5051924;28;20040;-72
2021/03/31 01:50:05;;;;;;;24.70;12.35;;;14.40;99.90;;;;;;5052067;28;20535;-71
2021/03/31 01:52:31;;;;;;;28.27;14.50;;;14.40;99.90;;;;;;5052452;28;20017;-73
2021/03/31 01:54:59;;;;;;;20.50;12.02;;;14.40;99.90;;;;;;5052111;28;20105;-72
2021/03/31 01:57:25;;;;;;;21.65;11.88;;;14.40;99.90;;;;;;5051890;28;20045;-73
2021/03/31 01:59:53;;;;;;;26.70;15.48;;;14.40;99.90;;;;;;5051586;28;20551;-70
2021/03/31 02:02:21;;;;;;;29.23;13.75;;;14.40;99.90;;;;;;5051720;28;20059;-71
2021/03/31 02:04:47;;;;;;;19.48;9.27;;;14.40;99.90;;;;;;5052004;28;20483;-73
2021/03/31 02:07:13;;;;;;;17.02;7.88;;;14.40;99.90;;;;;;5052175;28;20082;-69
2021/03/31 02:09:43;;;;;;;15.23;8.65;;;14.40;99.90;;;;;;5038056;28;20029;-72
2021/03/31 02:12:12;;;;;;;22.73;9.55;;;14.50;99.90;;;;;;5043434;28;20020;-71
2021/03/31 02:14:42;;;;;;;19.80;8.75;;;14.50;99.90;;;;;;5033587;28;20421;-71
2021/03/31 02:17:08;;;;;;;16.98;9.82;;;14.50;99.90;;;;;;5035488;28;20033;-72
2021/03/31 02:19:36;;;;;;;20.42;9.90;;;14.40;99.90;;;;;;5030887;28;20116;-70
2021/03/31 02:22:02;;;;;;;18.42;9.55;;;14.40;99.90;;;;;;5031112;28;20028;-71
2021/03/31 02:24:29;;;;;;;22.98;10.15;;;14.30;99.90;;;;;;5030612;28;20486;-71
2021/03/31 02:26:55;;;;;;;18.98;9.85;;;14.30;99.90;;;;;;5031195;28;20653;-70
2021/03/31 02:29:20;;;;;;;33.42;10.73;;;14.30;99.90;;;;;;5044034;28;20021;-71
2021/03/31 02:31:47;;;;;;;24.17;9.73;;;14.20;99.90;;;;;;5035259;28;20474;-73
2021/03/31 02:34:14;;;;;;;20.38;10.75;;;14.20;99.90;;;;;;5036921;28;20021;-71
2021/03/31 02:36:43;;;;;;;17.75;10.63;;;14.10;99.90;;;;;;5036560;28;20021;-73
2021/03/31 02:39:11;;;;;;;20.10;11.27;;;14.20;99.90;;;;;;5035971;28;20034;-73
2021/03/31 02:41:40;;;;;;;17.38;7.68;;;14.10;99.90;;;;;;5036516;28;20030;-72
2021/03/31 02:44:07;;;;;;;17.73;8.23;;;14.20;99.90;;;;;;5036635;28;20076;-71
2021/03/31 02:46:35;;;;;;;18.88;8.93;;;14.20;99.90;;;;;;5054235;28;20035;-71
2021/03/31 02:49:02;;;;;;;21.02;9.02;;;14.20;99.90;;;;;;5055719;28;20113;-74
2021/03/31 02:51:33;;;;;;;17.80;9.50;;;14.30;99.90;;;;;;5055524;28;20152;-74
2021/03/31 02:54:01;;;;;;;26.48;11.40;;;14.40;99.90;;;;;;5055315;28;20024;-74
2021/03/31 02:56:29;;;;;;;26.77;12.55;;;14.50;99.90;;;;;;5055075;28;20048;-74
2021/03/31 02:58:56;;;;;;;23.80;10.73;;;14.50;99.90;;;;;;5055313;28;20432;-75
2021/03/31 03:01:22;;;;;;;21.15;10.13;;;14.50;99.90;;;;;;5055149;28;20013;-71
2021/03/31 03:03:48;;;;;;;13.05;7.22;;;14.50;99.90;;;;;;5055162;28;20469;-72
2021/03/31 03:06:14;;;;;;;15.38;6.65;;;14.50;99.90;;;;;;5055176;28;20048;-71
2021/03/31 03:08:40;;;;;;;10.40;5.85;;;14.60;99.90;;;;;;5054809;28;20067;-74
2021/03/31 03:11:08;;;;;;;13.40;7.05;;;14.60;99.90;;;;;;5054628;28;20029;-72
2021/03/31 03:13:34;;;;;;;18.40;6.47;;;14.60;99.90;;;;;;5054440;28;20025;-72
2021/03/31 03:16:01;;;;;;;11.25;5.88;;;14.60;99.90;;;;;;5054794;28;20029;-71
2021/03/31 03:18:26;;;;;;;10.25;6.28;;;14.60;99.90;;;;;;5054814;28;20490;-71
2021/03/31 03:20:53;;;;;;;18.02;10.35;;;14.60;99.90;;;;;;5054821;28;20021;-73
2021/03/31 03:23:20;;;;;;;16.38;9.15;;;14.60;99.90;;;;;;5054443;28;20029;-70
2021/03/31 03:25:47;;;;;;;11.90;7.53;;;14.50;99.90;;;;;;5054542;28;20103;-73
2021/03/31 03:28:20;;;;;;;17.33;7.82;;;14.40;99.90;;;;;;5054815;28;20055;-71
2021/03/31 03:30:48;;;;;;;18.48;7.20;;;14.30;99.90;;;;;;5054836;28;20017;-73
2021/03/31 03:33:14;;;;;;;12.02;6.80;;;14.30;99.90;;;;;;5054362;28;20032;-71
2021/03/31 03:35:40;;;;;;;19.35;7.55;;;14.30;99.90;;;;;;5054527;28;20045;-72
2021/03/31 03:38:06;;;;;;;16.80;5.53;;;14.30;99.90;;;;;;5054395;28;20544;-71
2021/03/31 03:40:32;;;;;;;11.65;6.15;;;14.40;99.90;;;;;;5054417;28;20017;-72
2021/03/31 03:42:58;;;;;;;12.15;6.63;;;14.50;99.90;;;;;;5053584;28;20546;-73
2021/03/31 03:45:25;;;;;;;15.93;6.18;;;14.50;99.90;;;;;;5053893;28;20024;-70
2021/03/31 03:47:52;;;;;;;21.95;7.50;;;14.50;99.90;;;;;;5052965;28;20052;-71
2021/03/31 03:50:19;;;;;;;16.98;6.43;;;14.50;99.90;;;;;;5054418;28;20377;-72
2021/03/31 03:52:48;;;;;;;16.27;6.70;;;14.50;99.90;;;;;;5054444;28;20078;-74
2021/03/31 03:55:22;;;;;;;11.02;6.18;;;14.50;99.90;;;;;;5054141;28;20436;-74
2021/03/31 03:57:48;;;;;;;17.30;6.53;;;14.40;99.90;;;;;;5054098;28;20486;-74
2021/03/31 04:00:19;;;;;;;15.55;6.80;;;14.40;99.90;;;;;;5054085;28;20092;-73
2021/03/31 04:02:53;;;;;;;16.42;7.20;;;14.40;99.90;;;;;;5054311;28;20025;-72
2021/03/31 04:05:19;;;;;;;18.42;6.25;;;14.30;99.90;;;;;;5054104;28;20021;-74
2021/03/31 04:07:45;;;;;;;9.57;6.60;;;14.30;99.90;;;;;;5054138;28;20473;-71
2021/03/31 04:10:12;;;;;;;13.15;6.63;;;14.20;99.90;;;;;;5054379;28;20408;-72
2021/03/31 04:12:39;;;;;;;15.27;6.50;;;14.20;99.90;;;;;;5054037;28;20117;-71
2021/03/31 04:15:08;;;;;;;14.32;7.63;;;14.10;99.90;;;;;;5054925;28;20084;-72
2021/03/31 04:17:38;;;;;;;15.23;6.60;;;14.10;99.90;;;;;;5066275;28;20100;-73
2021/03/31 04:20:15;;;;;;;20.77;7.07;;;14.00;99.90;;;;;;5053667;28;20053;-74
2021/03/31 04:22:42;;;;;;;11.13;6.43;;;14.00;99.90;;;;;;5054052;28;20036;-73
2021/03/31 04:25:10;;;;;;;13.90;6.47;;;14.00;99.90;;;;;;5053699;28;20025;-73
2021/03/31 04:27:36;;;;;;;17.83;6.35;;;14.00;99.90;;;;;;5040037;28;20424;-72
2021/03/31 04:30:10;;;;;;;12.45;6.25;;;14.00;99.90;;;;;;5053591;28;20017;-71
2021/03/31 04:32:39;;;;;;;13.18;7.47;;;14.00;99.90;;;;;;5053179;28;20496;-73
2021/03/31 04:35:06;;;;;;;16.90;6.70;;;14.00;99.90;;;;;;5053846;28;20063;-71
2021/03/31 04:37:33;;;;;;;14.05;6.22;;;14.00;99.90;;;;;;5053518;28;20040;-70
2021/03/31 04:39:58;;;;;;;13.20;7.20;;;14.00;99.90;;;;;;5053555;28;20113;-73
2021/03/31 04:42:24;;;;;;;15.90;7.35;;;14.00;99.90;;;;;;5053421;28;20044;-71
2021/03/31 04:44:50;;;;;;;22.40;7.28;;;14.00;99.90;;;;;;5053315;28;20622;-73
2021/03/31 04:47:16;;;;;;;28.10;7.25;;;14.00;99.90;;;;;;5053669;28;20108;-72
2021/03/31 04:49:42;;;;;;;13.68;6.70;;;14.00;99.90;;;;;;5053032;28;20723;-71
2021/03/31 04:52:08;;;;;;;18.55;7.30;;;14.00;99.90;;;;;;5052966;28;20029;-73
2021/03/31 04:54:33;;;;;;;21.52;7.13;;;14.00;99.90;;;;;;5052798;28;20025;-73
2021/03/31 04:56:59;;;;;;;17.35;6.47;;;14.00;99.90;;;;;;5051489;28;20098;-72
2021/03/31 04:59:25;;;;;;;13.18;7.07;;;14.00;99.90;;;;;;5053114;28;20068;-71
2021/03/31 05:01:51;;;;;;;14.57;7.25;;;14.00;99.90;;;;;;5052422;28;20021;-72
2021/03/31 05:04:16;;;;;;;15.00;7.63;;;14.00;99.90;;;;;;5053015;28;20051;-71
2021/03/31 05:06:42;;;;;;;22.23;7.70;;;14.00;99.90;;;;;;5052980;28;20021;-72
2021/03/31 05:09:08;;;;;;;18.08;7.38;;;13.90;99.90;;;;;;5049725;28;20045;-72
2021/03/31 05:11:34;;;;;;;20.17;7.93;;;13.90;99.90;;;;;;5043196;28;20466;-70
2021/03/31 05:13:59;;;;;;;14.75;5.97;;;14.00;99.90;;;;;;5040614;28;20037;-72
2021/03/31 05:16:25;;;;;;;23.90;6.72;;;14.10;99.90;;;;;;5053002;28;20104;-73
2021/03/31 05:18:51;;;;;;;14.98;6.57;;;14.30;99.90;;;;;;5052578;28;20029;-72
2021/03/31 05:21:16;;;;;;;16.60;5.63;;;14.60;99.90;;;;;;5052739;28;20104;-72
2021/03/31 05:23:42;;;;;;;15.18;5.97;;;15.00;99.90;;;;;;5052277;28;20029;-73
2021/03/31 05:26:08;;;;;;;12.98;6.88;;;15.40;99.90;;;;;;5051072;28;20017;-70
2021/03/31 05:28:33;;;;;;;25.05;6.95;;;15.90;99.90;;;;;;5052506;28;20029;-72
2021/03/31 05:30:59;;;;;;;14.05;6.38;;;16.30;99.90;;;;;;5044834;28;20537;-73
2021/03/31 05:33:25;;;;;;;21.50;6.53;;;16.70;99.90;;;;;;5034059;28;20049;-74
2021/03/31 05:35:50;;;;;;;13.18;6.40;;;17.00;99.90;;;;;;5047623;28;20112;-74
2021/03/31 05:38:16;;;;;;;20.17;6.88;;;17.40;99.90;;;;;;5040228;28;20045;-77
2021/03/31 05:40:42;;;;;;;20.70;6.95;;;17.80;99.90;;;;;;5043405;28;20013;-74
2021/03/31 05:43:08;;;;;;;17.25;5.85;;;18.00;99.90;;;;;;5044018;28;20029;-72
2021/03/31 05:45:35;;;;;;;15.65;6.80;;;18.30;99.90;;;;;;5047384;28;20385;-73
2021/03/31 05:48:02;;;;;;;18.92;8.15;;;18.70;99.90;;;;;;5051726;28;20017;-74
2021/03/31 05:50:28;;;;;;;14.93;7.05;;;18.80;99.90;;;;;;5052257;28;20029;-74
2021/03/31 05:52:54;;;;;;;14.73;6.80;;;19.10;99.90;;;;;;5046204;28;20022;-73
2021/03/31 05:55:20;;;;;;;25.77;6.88;;;19.40;99.90;;;;;;5036918;28;20512;-72
2021/03/31 05:57:46;;;;;;;18.10;7.55;;;19.70;99.90;;;;;;5050225;28;20083;-73
2021/03/31 06:00:18;;;;;;;16.05;7.85;;;19.90;99.90;;;;;;5045330;28;20037;-72
2021/03/31 06:02:45;;;;;;;18.73;8.07;;;20.10;99.90;;;;;;5033922;28;20070;-70
2021/03/31 06:05:13;;;;;;;22.10;8.68;;;20.40;99.90;;;;;;5036462;28;20024;-73
2021/03/31 06:07:43;;;;;;;29.98;10.23;;;20.60;99.90;;;;;;5032502;28;20065;-74
2021/03/31 06:10:21;;;;;;;25.10;9.73;;;20.80;99.90;;;;;;5040109;28;20028;-74
2021/03/31 06:13:02;;;;;;;27.05;9.48;;;20.90;99.90;;;;;;5044945;28;20065;-73
2021/03/31 06:15:45;;;;;;;20.58;9.20;;;21.30;99.90;;;;;;5042384;28;20104;-74
2021/03/31 06:18:15;;;;;;;21.17;10.13;;;21.70;99.70;;;;;;5043150;28;20067;-74
2021/03/31 06:20:56;;;;;;;20.10;8.90;;;21.90;99.90;;;;;;5033866;28;20025;-73
2021/03/31 06:26:19;;;;;;;38.97;11.05;;;21.80;99.90;;;;;;5050147;28;20108;-74
2021/03/31 06:28:54;;;;;;;21.05;10.40;;;21.70;99.90;;;;;;5039958;28;20036;-73
2021/03/31 06:31:21;;;;;;;24.00;9.57;;;21.90;99.90;;;;;;5037704;28;20119;-73
2021/03/31 06:33:49;;;;;;;29.48;10.25;;;22.20;99.90;;;;;;5042451;28;20492;-72
2021/03/31 06:36:16;;;;;;;33.50;10.93;;;22.40;99.60;;;;;;5040773;28;20475;-74
2021/03/31 06:38:48;;;;;;;45.92;12.18;;;22.30;99.80;;;;;;5045368;28;20541;-74
2021/03/31 06:44:22;;;;;;;45.42;13.90;;;22.90;99.10;;;;;;5037604;28;20029;-73
2021/03/31 06:47:00;;;;;;;62.15;13.20;;;23.50;97.70;;;;;;5050721;28;20017;-71
2021/03/31 06:49:25;;;;;;;65.43;13.40;;;23.50;97.10;;;;;;5036540;28;20554;-70
2021/03/31 06:51:51;;;;;;;50.35;12.40;;;23.30;97.10;;;;;;5037112;28;20028;-70
2021/03/31 06:54:21;;;;;;;54.45;12.38;;;23.50;96.80;;;;;;5037563;28;20030;-73
2021/03/31 06:56:57;;;;;;;68.43;15.50;;;23.80;96.40;;;;;;5041225;28;20405;-73
2021/03/31 06:59:27;;;;;;;44.90;11.88;;;24.10;96.50;;;;;;5035731;28;20083;-73
2021/03/31 07:01:54;;;;;;;66.28;12.80;;;24.30;95.50;;;;;;5036686;28;20545;-73
2021/03/31 07:04:20;;;;;;;48.78;11.18;;;24.30;95.30;;;;;;5038897;28;20036;-72
2021/03/31 07:07:11;;;;;;;41.42;10.75;;;24.30;94.90;;;;;;5034886;28;20072;-74
2021/03/31 07:09:40;;;;;;;40.20;12.32;;;24.50;94.60;;;;;;5040373;28;20021;-74
2021/03/31 07:12:24;;;;;;;48.65;11.00;;;24.90;94.40;;;;;;5035253;28;20029;-74
2021/03/31 07:14:50;;;;;;;33.72;10.10;;;25.10;93.60;;;;;;5050084;28;20025;-74
2021/03/31 07:17:23;;;;;;;35.42;9.23;;;25.40;92.50;;;;;;5046146;28;20113;-74
2021/03/31 07:19:50;;;;;;;27.70;9.18;;;25.40;92.10;;;;;;5039026;28;20025;-74
2021/03/31 07:22:16;;;;;;;30.33;7.90;;;25.90;91.50;;;;;;5042978;28;20038;-74
2021/03/31 07:24:41;;;;;;;32.45;8.07;;;26.00;90.90;;;;;;5036310;28;20137;-73
2021/03/31 07:27:15;;;;;;;33.83;9.35;;;26.00;90.60;;;;;;5037681;28;20093;-75
2021/03/31 07:30:05;;;;;;;41.42;9.20;;;26.10;90.50;;;;;;5036062;28;20503;-73
2021/03/31 07:32:38;;;;;;;73.90;11.73;;;26.50;91.00;;;;;;5034134;28;20446;-75
2021/03/31 07:35:04;;;;;;;59.70;11.90;;;27.50;90.60;;;;;;5035563;28;20038;-74
2021/03/31 07:37:31;;;;;;;79.57;13.60;;;28.10;90.00;;;;;;5034464;28;20486;-74
2021/03/31 07:40:03;;;;;;;74.47;12.70;;;28.60;86.80;;;;;;5033107;28;20045;-74
2021/03/31 07:42:31;;;;;;;74.53;12.77;;;28.80;86.40;;;;;;5033787;28;20041;-75
2021/03/31 07:45:00;;;;;;;76.00;13.60;;;29.00;85.90;;;;;;5035783;28;20052;-74
2021/03/31 07:47:27;;;;;;;62.78;12.55;;;29.30;83.90;;;;;;5035431;28;20021;-74
2021/03/31 07:49:54;;;;;;;40.70;10.07;;;29.20;83.20;;;;;;5034228;28;20038;-74
2021/03/31 07:52:20;;;;;;;37.00;8.57;;;29.00;81.90;;;;;;5034317;28;20025;-75
2021/03/31 07:54:46;;;;;;;27.77;8.10;;;28.90;81.10;;;;;;5034262;28;20025;-74
2021/03/31 07:57:28;;;;;;;33.22;9.52;;;28.70;81.90;;;;;;5033872;28;20048;-73
2021/03/31 07:59:54;;;;;;;41.60;10.00;;;28.60;83.50;;;;;;5038868;28;20501;-75
2021/03/31 08:02:24;;;;;;;33.53;10.48;;;28.60;87.80;;;;;;5035343;28;20017;-74
2021/03/31 08:04:49;;;;;;;29.95;11.18;;;28.30;90.00;;;;;;5032866;28;20051;-75
2021/03/31 08:07:21;;;;;;;29.00;11.98;;;28.00;90.50;;;;;;5037117;28;20469;-74
2021/03/31 08:09:47;;;;;;;20.83;11.20;;;27.70;90.60;;;;;;5035065;28;20033;-73
2021/03/31 08:12:34;;;;;;;35.85;11.80;;;27.60;91.00;;;;;;5034241;28;20056;-74
2021/03/31 08:15:00;;;;;;;34.22;11.05;;;27.20;91.30;;;;;;5038670;28;20389;-75
2021/03/31 08:17:26;;;;;;;34.83;12.45;;;27.10;91.10;;;;;;5041547;28;20026;-75
2021/03/31 08:19:53;;;;;;;19.48;10.93;;;27.40;91.50;;;;;;5040250;28;20632;-74
2021/03/31 08:22:24;;;;;;;33.25;12.18;;;27.50;91.40;;;;;;5037835;28;20029;-73
2021/03/31 08:24:58;;;;;;;26.80;10.90;;;27.50;91.90;;;;;;5033666;28;20552;-73
2021/03/31 08:27:27;;;;;;;24.80;11.18;;;27.40;92.10;;;;;;5034182;28;20366;-74
2021/03/31 08:29:56;;;;;;;24.63;10.63;;;27.30;92.10;;;;;;5035081;28;20486;-74
2021/03/31 08:32:23;;;;;;;27.90;10.68;;;27.30;92.20;;;;;;5031406;28;20108;-74
2021/03/31 08:34:49;;;;;;;20.15;11.10;;;27.30;92.20;;;;;;5033470;28;20040;-74
2021/03/31 08:37:24;;;;;;;24.10;12.38;;;27.30;92.00;;;;;;5032636;28;20025;-75
2021/03/31 08:39:50;;;;;;;30.75;13.20;;;27.40;91.80;;;;;;5034833;28;20057;-75
2021/03/31 08:42:16;;;;;;;33.35;11.35;;;27.40;91.70;;;;;;5036078;28;20048;-75
2021/03/31 08:44:48;;;;;;;24.98;11.85;;;27.40;91.60;;;;;;5035291;28;20028;-75
2021/03/31 08:47:15;;;;;;;27.85;10.77;;;;;;;;;;5033116;28;20025;-74
2021/03/31 08:49:42;;;;;;;23.80;11.95;;;27.70;89.30;;;;;;5034804;28;20037;-72
2021/03/31 08:52:10;;;;;;;17.48;9.65;;;27.70;88.50;;;;;;5034854;28;20037;-75
2021/03/31 08:54:49;;;;;;;32.40;9.98;;;27.90;87.00;;;;;;5037400;28;20060;-74
2021/03/31 08:57:17;;;;;;;22.98;10.93;;;28.00;86.60;;;;;;5032060;28;20097;-74
2021/03/31 08:59:46;;;;;;;18.30;9.07;;;28.10;86.20;;;;;;5034431;28;20116;-75
2021/03/31 09:02:12;;;;;;;25.35;9.73;;;28.20;87.00;;;;;;5034350;28;20120;-75
2021/03/31 09:04:38;;;;;;;21.88;9.15;;;28.50;84.80;;;;;;5034198;28;20041;-75
2021/03/31 09:07:09;;;;;;;27.00;9.50;;;28.60;85.50;;;;;;5035408;28;20014;-74
2021/03/31 09:09:36;;;;;;;24.67;9.55;;;28.60;83.60;;;;;;5034335;28;20025;-74
2021/03/31 09:12:07;;;;;;;30.15;9.30;;;28.50;83.60;;;;;;5038684;28;20539;-74
2021/03/31 09:14:34;;;;;;;27.97;8.13;;;28.50;83.20;;;;;;5042362;28;20037;-74
2021/03/31 09:17:02;;;;;;;20.92;8.23;;;28.50;82.50;;;;;;5035913;28;20476;-74
2021/03/31 09:19:31;;;;;;;30.98;9.48;;;28.40;82.10;;;;;;5045177;28;20512;-74
2021/03/31 09:22:08;;;;;;;27.20;8.68;;;28.40;81.20;;;;;;5040551;28;20017;-74
2021/03/31 09:24:34;;;;;;;23.90;9.15;;;28.30;82.00;;;;;;5037292;28;20029;-75
2021/03/31 09:27:06;;;;;;;21.48;8.55;;;28.20;81.70;;;;;;5035209;28;20096;-74
2021/03/31 09:29:33;;;;;;;28.50;10.48;;;28.20;82.30;;;;;;5033162;28;20014;-73
2021/03/31 09:32:02;;;;;;;24.05;8.57;;;28.20;81.80;;;;;;5034135;28;20033;-71
2021/03/31 09:34:28;;;;;;;25.15;9.23;;;28.20;81.90;;;;;;5032180;28;20021;-74
2021/03/31 09:37:03;;;;;;;28.05;8.95;;;28.20;81.50;;;;;;5031917;28;20032;-73
2021/03/31 09:39:42;;;;;;;30.38;9.90;;;28.10;80.90;;;;;;5042072;28;20037;-74
2021/03/31 09:42:15;;;;;;;46.67;10.40;;;27.90;80.80;;;;;;5039944;28;20100;-74
2021/03/31 09:44:41;;;;;;;28.08;10.50;;;27.30;83.20;;;;;;5033609;28;20028;-75
2021/03/31 09:47:10;;;;;;;36.38;9.95;;;27.10;82.70;;;;;;5032376;28;20134;-74
2021/03/31 09:49:38;;;;;;;32.65;10.23;;;26.90;81.40;;;;;;5032060;28;20025;-74
2021/03/31 09:52:05;;;;;;;30.42;11.27;;;26.90;81.70;;;;;;5034619;28;20037;-74
2021/03/31 09:54:32;;;;;;;28.95;11.35;;;26.90;82.40;;;;;;5034494;28;20030;-74
2021/03/31 09:56:59;;;;;;;22.63;9.93;;;26.90;82.40;;;;;;5033723;28;20038;-75
2021/03/31 09:59:26;;;;;;;23.95;10.07;;;27.00;83.20;;;;;;5033894;28;20068;-74
2021/03/31 10:01:52;;;;;;;24.40;9.27;;;27.00;79.60;;;;;;5035170;28;20686;-75
2021/03/31 10:04:21;;;;;;;23.75;9.40;;;27.00;79.80;;;;;;5033050;28;20390;-74
2021/03/31 10:07:15;;;;;;;26.80;9.75;;;27.20;79.10;;;;;;5031401;28;20021;-74
2021/03/31 10:09:43;;;;;;;26.80;10.10;;;27.30;77.90;;;;;;5034959;28;20401;-74
2021/03/31 10:12:11;;;;;;;38.30;9.90;;;27.30;77.90;;;;;;5042471;28;20560;-74
2021/03/31 10:14:49;;;;;;;24.35;9.75;;;27.20;78.70;;;;;;5032768;28;20370;-74
2021/03/31 10:17:20;;;;;;;26.33;8.73;;;27.20;79.80;;;;;;5034348;28;20060;-73
2021/03/31 10:19:47;;;;;;;24.75;8.48;;;27.10;79.40;;;;;;5035275;28;20029;-74
2021/03/31 10:22:15;;;;;;;20.67;9.05;;;27.10;81.10;;;;;;5045377;28;20036;-73
2021/03/31 10:24:46;;;;;;;18.85;8.52;;;27.00;82.30;;;;;;5031157;28;20021;-74
2021/03/31 10:27:17;;;;;;;20.55;8.95;;;26.90;83.20;;;;;;5039861;28;20311;-74
2021/03/31 10:29:52;;;;;;;25.53;9.17;;;26.80;82.70;;;;;;5039952;28;20040;-73
2021/03/31 10:32:21;;;;;;;19.80;9.18;;;26.80;82.50;;;;;;5039471;28;20629;-74
2021/03/31 10:34:51;;;;;;;27.50;8.77;;;26.80;82.20;;;;;;5042940;28;20033;-74
2021/03/31 10:37:32;;;;;;;16.90;7.63;;;26.90;82.10;;;;;;5035804;28;20036;-76
2021/03/31 10:40:26;;;;;;;44.25;7.50;;;26.80;81.60;;;;;;5043963;28;20054;-79
2021/03/31 10:50:58;;;;;;;19.50;8.00;;;25.70;82.50;;;;;;5052862;28;20489;-77
2021/03/31 10:53:34;;;;;;;21.92;7.88;;;25.40;84.40;;;;;;5038164;28;20032;-77
2021/03/31 10:56:02;;;;;;;23.30;9.23;;;25.20;85.00;;;;;;5034746;28;20049;-77
2021/03/31 10:58:28;;;;;;;18.77;8.88;;;25.00;84.90;;;;;;5044469;28;20123;-80
2021/03/31 11:00:54;;;;;;;16.80;8.55;;;24.80;86.10;;;;;;5040774;28;20596;-79
2021/03/31 11:03:21;;;;;;;21.67;9.07;;;24.50;88.10;;;;;;5040424;28;20025;-80
2021/03/31 11:05:46;;;;;;;22.25;8.73;;;24.40;90.30;;;;;;5038452;28;20156;-77
2021/03/31 11:08:12;;;;;;;17.95;9.25;;;24.50;90.10;;;;;;5046747;28;20135;-81
2021/03/31 11:10:38;;;;;;;27.00;9.32;;;24.50;90.00;;;;;;5035417;28;20034;-80
2021/03/31 11:13:05;;;;;;;16.23;8.77;;;24.50;90.40;;;;;;5035849;28;20096;-77
2021/03/31 11:15:31;;;;;;;20.70;9.57;;;24.50;90.20;;;;;;5035605;28;20076;-80
2021/03/31 11:18:01;;;;;;;22.38;9.13;;;24.50;90.30;;;;;;5032376;28;20025;-81
2021/03/31 11:28:07;;;;;;;16.63;8.85;;;24.10;90.40;;;;;;5037776;28;20037;-80
2021/03/31 11:30:33;;;;;;;17.85;10.00;;;24.10;90.50;;;;;;5034856;28;20021;-79
2021/03/31 11:32:59;;;;;;;102.10;14.20;;;24.00;89.70;;;;;;5034507;28;20408;-81
2021/03/31 11:36:53;;;;;;;20.70;10.23;;;23.80;90.30;;;;;;5087511;28;20360;-80
2021/03/31 11:39:19;;;;;;;24.65;9.43;;;23.90;90.20;;;;;;5082336;28;20465;-82
2021/03/31 11:41:46;;;;;;;24.88;8.77;;;23.90;87.30;;;;;;5082536;28;20028;-84
2021/03/31 11:44:12;;;;;;;20.48;7.88;;;23.80;89.10;;;;;;5060981;28;20020;-85
2021/03/31 11:46:37;;;;;;;27.80;8.27;;;23.90;89.60;;;;;;5074304;28;20012;-82
2021/03/31 11:49:03;;;;;;;34.85;8.40;;;24.00;88.90;;;;;;5073426;28;20269;-83
2021/03/31 11:51:29;;;;;;;29.23;8.85;;;24.10;87.60;;;;;;5067914;28;20029;-80
2021/03/31 11:53:55;;;;;;;26.52;8.18;;;24.10;88.20;;;;;;5068604;28;20028;-76
2021/03/31 11:56:21;;;;;;;23.00;6.88;;;24.00;87.70;;;;;;5071149;28;20393;-74
2021/03/31 11:58:47;;;;;;;33.78;7.13;;;24.10;87.60;;;;;;5080821;28;20069;-81
2021/03/31 12:01:13;;;;;;;27.40;7.88;;;24.20;86.90;;;;;;5084225;28;20498;-78
2021/03/31 12:03:38;;;;;;;22.10;7.53;;;24.30;88.00;;;;;;5083397;28;20028;-81
2021/03/31 12:06:04;;;;;;;19.05;7.35;;;24.40;85.60;;;;;;5071909;28;20032;-81
2021/03/31 12:08:30;;;;;;;21.40;7.35;;;24.50;84.00;;;;;;5070897;28;20021;-77
2021/03/31 12:10:56;;;;;;;30.75;7.30;;;24.40;84.00;;;;;;5077753;28;20021;-79
2021/03/31 12:13:21;;;;;;;21.02;8.90;;;24.40;84.60;;;;;;5068185;28;20498;-76
2021/03/31 12:15:47;;;;;;;21.67;7.28;;;24.30;85.50;;;;;;5081511;28;20025;-80
2021/03/31 12:18:13;;;;;;;34.28;6.72;;;24.20;85.80;;;;;;5071973;28;20023;-78
2021/03/31 12:20:39;;;;;;;23.30;7.38;;;24.10;85.10;;;;;;5079827;28;20581;-77
2021/03/31 12:23:05;;;;;;;19.08;6.53;;;24.10;85.20;;;;;;5071836;28;20079;-75
2021/03/31 12:25:31;;;;;;;23.00;7.85;;;24.10;84.00;;;;;;5069985;28;20489;-76
2021/03/31 12:27:59;;;;;;;48.13;6.25;;;24.00;83.40;;;;;;5069138;28;20060;-76
2021/03/31 12:30:26;;;;;;;28.33;6.75;;;24.00;81.70;;;;;;5071744;28;20025;-81
2021/03/31 12:32:52;;;;;;;30.63;6.53;;;24.00;81.80;;;;;;5068263;28;20048;-76
2021/03/31 12:35:18;;;;;;;20.42;8.23;;;23.90;81.70;;;;;;5081455;28;20124;-78
2021/03/31 12:37:44;;;;;;;27.70;6.68;;;23.90;81.30;;;;;;5067251;28;20439;-76
2021/03/31 12:40:10;;;;;;;20.58;6.45;;;23.80;81.70;;;;;;5066445;28;20033;-77
2021/03/31 12:42:37;;;;;;;21.30;7.05;;;23.90;82.00;;;;;;5069676;28;20473;-77
2021/03/31 12:45:05;;;;;;;28.55;8.05;;;23.90;81.10;;;;;;5063115;28;20040;-78
2021/03/31 12:47:32;;;;;;;17.48;6.65;;;24.10;81.00;;;;;;5054468;28;20040;-79
2021/03/31 12:49:58;;;;;;;12.32;5.65;;;24.10;83.80;;;;;;5039634;28;20018;-81
2021/03/31 12:52:43;;;;;;;25.40;6.85;;;24.20;81.10;;;;;;5049146;28;20055;-80
2021/03/31 12:55:13;;;;;;;26.95;7.88;;;24.20;80.50;;;;;;5053861;28;20058;-81
2021/03/31 12:57:39;;;;;;;19.42;7.38;;;24.20;80.40;;;;;;5050486;28;20048;-81
2021/03/31 13:00:07;;;;;;;26.50;7.78;;;24.30;79.20;;;;;;5052855;28;20083;-80
2021/03/31 13:02:33;;;;;;;28.33;7.18;;;24.30;78.90;;;;;;5052822;28;20124;-81
2021/03/31 13:04:59;;;;;;;26.10;7.30;;;24.40;78.20;;;;;;5052443;28;20100;-80